HETCH HETCHY (HTH)

Elevation: 3870' · TUOLUMNE R basin · Operator: Hetch Hetchy Water and Power

Provisional data, subject to change.
Query executed Sunday at 17:00:44   clock

Select a sensor type for a plot of data.
Note: Reservoir Flows are daily averages.

Earlier

Date RES ELE    STORAGE    RES CHG    OUTFLOW    INFLOW    PPT INC    RAIN    PPTINC4   
 FEET   AF   AF   CFS   CFS   INCHES   INCHES   INCHES  
11/22/2014 -- 243497 -- 437 -- 0.17 2.69 0.00
11/23/2014 -- 243155 -- 428 -- 0.67 3.36 0.70
11/24/2014 -- 242471 -- 406 -- 0.00 3.36 0.00
11/25/2014 -- 241790 -- 318 -- 0.00 3.36 0.00
11/26/2014 -- -- -- -- -- 0.00 3.36 0.00
11/27/2014 -- 240260 -- 514 -- 0.00 3.36 0.00
11/28/2014 -- 239410 -- 482 -- 0.00 3.36 0.00
11/29/2014 -- 236562 -- 443 -- 0.00 3.36 0.00
11/30/2014 -- 237886 -- 443 -- 0.60 3.96 0.12
12/01/2014 -- 237210 -- 440 -- 0.16 4.12 0.14
12/02/2014 -- 236703 -- 364 -- 0.00 4.12 0.00
12/03/2014 -- 236703 -- 368 -- 0.92 5.04 0.64
12/04/2014 -- 237041 -- 366 -- 0.22 5.26 0.42
12/05/2014 -- 23872 -- 329 -- 0.00 5.26 0.01
12/06/2014 -- 236703 -- 317 -- 0.00 5.26 0.00
12/07/2014 -- 236365 -- 349 -- 0.00 5.26 0.00
12/08/2014 -- 236027 -- 352 -- 0.00 5.26 0.00
12/09/2014 -- 235520 -- 329 -- 0.00 5.26 0.00
12/10/2014 -- 235184 -- 345 -- 0.00 5.26 0.00
12/11/2014 -- 234680 -- 326 -- 0.00 5.26 0.00
12/12/2014 -- 234512 -- 359 -- 1.71 6.97 0.97
12/13/2014 -- 234344 -- 356 -- 0.33 7.30 0.90
12/14/2014 -- 234008 -- 356 -- 0.00 7.30 0.00
12/15/2014 -- 233504 -- 355 -- 0.00 7.30 0.00
12/16/2014 -- 233336 -- 349 -- 0.50 7.80 0.43
12/17/2014 -- 233168 -- 302 -- 0.05 7.85 0.61
12/18/2014 -- 232832 -- 283 -- 0.00 7.85 0.02
12/19/2014 -- -- -- -- -- -- 7.85 0.00
12/20/2014 -- -- -- -- -- -- 7.85 0.22
12/21/2014 -- -- -- -- -- -- -- 0.22

Later | Latest

Warning! This data is preliminary and subject to revision.

Show HTH Map | Plot HTH Data | 1 Month HTH Data | Real-Time HTH Data | HTH Info